sensor_id;sensor_type;location;lat;lon;timestamp;P1;durP1;ratioP1;P2;durP2;ratioP2
4486;SDS011;2256;48.740;9.106;2022-11-20T00:00:15;13.48;;;5.80;;
4486;SDS011;2256;48.740;9.106;2022-11-20T00:02:44;8.18;;;5.60;;
4486;SDS011;2256;48.740;9.106;2022-11-20T00:05:10;10.38;;;5.45;;
4486;SDS011;2256;48.740;9.106;2022-11-20T00:07:37;8.07;;;5.40;;
4486;SDS011;2256;48.740;9.106;2022-11-20T00:10:04;9.57;;;5.95;;
4486;SDS011;2256;48.740;9.106;2022-11-20T00:12:31;14.52;;;5.40;;
4486;SDS011;2256;48.740;9.106;2022-11-20T00:14:58;9.73;;;4.82;;
4486;SDS011;2256;48.740;9.106;2022-11-20T00:17:24;8.55;;;5.78;;
4486;SDS011;2256;48.740;9.106;2022-11-20T00:19:53;8.77;;;5.05;;
4486;SDS011;2256;48.740;9.106;2022-11-20T00:22:19;15.18;;;6.85;;
4486;SDS011;2256;48.740;9.106;2022-11-20T00:24:46;8.00;;;5.53;;
4486;SDS011;2256;48.740;9.106;2022-11-20T00:27:13;9.57;;;5.75;;
4486;SDS011;2256;48.740;9.106;2022-11-20T00:29:39;8.80;;;5.30;;
4486;SDS011;2256;48.740;9.106;2022-11-20T00:32:06;7.50;;;4.70;;
4486;SDS011;2256;48.740;9.106;2022-11-20T00:34:33;7.93;;;5.20;;
4486;SDS011;2256;48.740;9.106;2022-11-20T00:37:01;9.45;;;4.95;;
4486;SDS011;2256;48.740;9.106;2022-11-20T00:39:28;8.07;;;5.15;;
4486;SDS011;2256;48.740;9.106;2022-11-20T00:41:55;8.57;;;5.32;;
4486;SDS011;2256;48.740;9.106;2022-11-20T00:44:21;10.52;;;5.60;;
4486;SDS011;2256;48.740;9.106;2022-11-20T00:46:48;10.35;;;5.97;;
4486;SDS011;2256;48.740;9.106;2022-11-20T00:49:15;6.85;;;5.05;;
4486;SDS011;2256;48.740;9.106;2022-11-20T00:51:41;9.77;;;4.30;;
4486;SDS011;2256;48.740;9.106;2022-11-20T00:54:10;7.90;;;4.70;;
4486;SDS011;2256;48.740;9.106;2022-11-20T00:56:36;10.65;;;4.95;;
4486;SDS011;2256;48.740;9.106;2022-11-20T00:59:03;7.40;;;4.35;;
4486;SDS011;2256;48.740;9.106;2022-11-20T01:01:30;6.13;;;4.32;;
4486;SDS011;2256;48.740;9.106;2022-11-20T01:03:57;8.20;;;4.63;;
4486;SDS011;2256;48.740;9.106;2022-11-20T01:06:27;6.00;;;4.45;;
4486;SDS011;2256;48.740;9.106;2022-11-20T01:08:55;9.20;;;4.70;;
4486;SDS011;2256;48.740;9.106;2022-11-20T01:11:25;12.65;;;4.35;;
4486;SDS011;2256;48.740;9.106;2022-11-20T01:13:54;10.10;;;4.70;;
4486;SDS011;2256;48.740;9.106;2022-11-20T01:16:22;7.22;;;4.50;;
4486;SDS011;2256;48.740;9.106;2022-11-20T01:18:51;6.90;;;4.40;;
4486;SDS011;2256;48.740;9.106;2022-11-20T01:21:20;7.35;;;4.10;;
4486;SDS011;2256;48.740;9.106;2022-11-20T01:23:49;9.07;;;4.60;;
4486;SDS011;2256;48.740;9.106;2022-11-20T01:26:17;7.03;;;4.40;;
4486;SDS011;2256;48.740;9.106;2022-11-20T01:28:46;9.63;;;4.72;;
4486;SDS011;2256;48.740;9.106;2022-11-20T01:31:14;6.57;;;4.63;;
4486;SDS011;2256;48.740;9.106;2022-11-20T01:33:43;6.97;;;3.70;;
4486;SDS011;2256;48.740;9.106;2022-11-20T01:36:11;7.43;;;4.53;;
4486;SDS011;2256;48.740;9.106;2022-11-20T01:38:38;9.32;;;4.43;;
4486;SDS011;2256;48.740;9.106;2022-11-20T01:41:05;7.35;;;5.00;;
4486;SDS011;2256;48.740;9.106;2022-11-20T01:43:33;10.57;;;4.10;;
4486;SDS011;2256;48.740;9.106;2022-11-20T01:46:06;7.75;;;3.97;;
4486;SDS011;2256;48.740;9.106;2022-11-20T01:48:42;6.35;;;4.35;;
4486;SDS011;2256;48.740;9.106;2022-11-20T01:51:15;5.38;;;4.18;;
4486;SDS011;2256;48.740;9.106;2022-11-20T01:53:51;13.60;;;4.05;;
4486;SDS011;2256;48.740;9.106;2022-11-20T01:56:19;5.88;;;3.97;;
4486;SDS011;2256;48.740;9.106;2022-11-20T01:58:48;9.45;;;4.45;;
4486;SDS011;2256;48.740;9.106;2022-11-20T02:01:19;6.07;;;4.18;;
4486;SDS011;2256;48.740;9.106;2022-11-20T02:03:47;9.18;;;5.18;;
4486;SDS011;2256;48.740;9.106;2022-11-20T02:06:16;5.28;;;4.30;;
4486;SDS011;2256;48.740;9.106;2022-11-20T02:08:49;12.35;;;5.30;;
4486;SDS011;2256;48.740;9.106;2022-11-20T02:11:16;13.73;;;4.60;;
4486;SDS011;2256;48.740;9.106;2022-11-20T02:13:43;11.88;;;5.18;;
4486;SDS011;2256;48.740;9.106;2022-11-20T02:16:10;7.22;;;4.35;;
4486;SDS011;2256;48.740;9.106;2022-11-20T02:18:41;8.20;;;4.88;;
4486;SDS011;2256;48.740;9.106;2022-11-20T02:21:12;9.48;;;4.40;;
4486;SDS011;2256;48.740;9.106;2022-11-20T02:23:59;8.02;;;4.57;;
4486;SDS011;2256;48.740;9.106;2022-11-20T02:26:28;9.60;;;4.18;;
4486;SDS011;2256;48.740;9.106;2022-11-20T02:28:57;7.32;;;4.70;;
4486;SDS011;2256;48.740;9.106;2022-11-20T02:31:26;6.20;;;4.55;;
4486;SDS011;2256;48.740;9.106;2022-11-20T02:33:56;6.07;;;4.10;;
4486;SDS011;2256;48.740;9.106;2022-11-20T02:36:23;6.88;;;4.47;;
4486;SDS011;2256;48.740;9.106;2022-11-20T02:38:52;9.52;;;3.90;;
4486;SDS011;2256;48.740;9.106;2022-11-20T02:41:21;6.43;;;4.15;;
4486;SDS011;2256;48.740;9.106;2022-11-20T02:43:56;7.47;;;4.05;;
4486;SDS011;2256;48.740;9.106;2022-11-20T02:46:22;9.18;;;4.07;;
4486;SDS011;2256;48.740;9.106;2022-11-20T02:48:49;4.50;;;3.28;;
4486;SDS011;2256;48.740;9.106;2022-11-20T02:51:16;6.57;;;4.53;;
4486;SDS011;2256;48.740;9.106;2022-11-20T02:53:43;13.85;;;4.30;;
4486;SDS011;2256;48.740;9.106;2022-11-20T02:56:10;7.45;;;3.80;;
4486;SDS011;2256;48.740;9.106;2022-11-20T02:58:38;11.30;;;4.25;;
4486;SDS011;2256;48.740;9.106;2022-11-20T03:01:05;7.63;;;4.38;;
4486;SDS011;2256;48.740;9.106;2022-11-20T03:03:31;9.57;;;4.00;;
4486;SDS011;2256;48.740;9.106;2022-11-20T03:05:58;6.15;;;4.13;;
4486;SDS011;2256;48.740;9.106;2022-11-20T03:08:25;6.78;;;3.90;;
4486;SDS011;2256;48.740;9.106;2022-11-20T03:10:53;6.20;;;4.00;;
4486;SDS011;2256;48.740;9.106;2022-11-20T03:13:20;6.82;;;4.40;;
4486;SDS011;2256;48.740;9.106;2022-11-20T03:15:48;7.95;;;4.32;;
4486;SDS011;2256;48.740;9.106;2022-11-20T03:18:14;7.38;;;4.70;;
4486;SDS011;2256;48.740;9.106;2022-11-20T03:20:41;10.80;;;4.43;;
4486;SDS011;2256;48.740;9.106;2022-11-20T03:23:08;18.88;;;4.82;;
4486;SDS011;2256;48.740;9.106;2022-11-20T03:25:35;9.40;;;4.85;;
4486;SDS011;2256;48.740;9.106;2022-11-20T03:28:01;8.70;;;5.03;;
4486;SDS011;2256;48.740;9.106;2022-11-20T03:30:28;9.48;;;4.40;;
4486;SDS011;2256;48.740;9.106;2022-11-20T03:32:56;6.47;;;4.75;;
4486;SDS011;2256;48.740;9.106;2022-11-20T03:35:23;13.00;;;5.18;;
4486;SDS011;2256;48.740;9.106;2022-11-20T03:37:50;6.55;;;4.55;;
4486;SDS011;2256;48.740;9.106;2022-11-20T03:40:17;10.40;;;4.85;;
4486;SDS011;2256;48.740;9.106;2022-11-20T03:42:44;6.57;;;4.45;;
4486;SDS011;2256;48.740;9.106;2022-11-20T03:45:10;11.07;;;4.53;;
4486;SDS011;2256;48.740;9.106;2022-11-20T03:47:37;10.77;;;5.40;;
4486;SDS011;2256;48.740;9.106;2022-11-20T03:50:06;9.27;;;4.70;;
4486;SDS011;2256;48.740;9.106;2022-11-20T03:52:33;9.65;;;5.53;;
4486;SDS011;2256;48.740;9.106;2022-11-20T03:55:00;14.30;;;5.90;;
4486;SDS011;2256;48.740;9.106;2022-11-20T03:57:27;8.60;;;5.30;;
4486;SDS011;2256;48.740;9.106;2022-11-20T03:59:53;7.93;;;5.10;;
4486;SDS011;2256;48.740;9.106;2022-11-20T04:02:20;9.30;;;5.38;;
4486;SDS011;2256;48.740;9.106;2022-11-20T04:04:47;10.02;;;6.00;;
4486;SDS011;2256;48.740;9.106;2022-11-20T04:07:15;10.57;;;5.85;;
4486;SDS011;2256;48.740;9.106;2022-11-20T04:09:42;10.30;;;5.00;;
4486;SDS011;2256;48.740;9.106;2022-11-20T04:12:09;7.72;;;4.60;;
4486;SDS011;2256;48.740;9.106;2022-11-20T04:14:35;9.55;;;5.03;;
4486;SDS011;2256;48.740;9.106;2022-11-20T04:17:03;9.27;;;5.82;;
4486;SDS011;2256;48.740;9.106;2022-11-20T04:19:30;10.75;;;6.00;;
4486;SDS011;2256;48.740;9.106;2022-11-20T04:21:56;7.40;;;5.13;;
4486;SDS011;2256;48.740;9.106;2022-11-20T04:24:24;8.88;;;5.05;;
4486;SDS011;2256;48.740;9.106;2022-11-20T04:26:52;8.95;;;5.72;;
4486;SDS011;2256;48.740;9.106;2022-11-20T04:29:19;8.73;;;5.22;;
4486;SDS011;2256;48.740;9.106;2022-11-20T04:31:46;8.25;;;5.90;;
4486;SDS011;2256;48.740;9.106;2022-11-20T04:34:13;9.15;;;5.70;;
4486;SDS011;2256;48.740;9.106;2022-11-20T04:36:39;8.45;;;6.05;;
4486;SDS011;2256;48.740;9.106;2022-11-20T04:39:11;10.48;;;6.47;;
4486;SDS011;2256;48.740;9.106;2022-11-20T04:41:41;10.52;;;5.15;;
4486;SDS011;2256;48.740;9.106;2022-11-20T04:44:08;12.27;;;5.75;;
4486;SDS011;2256;48.740;9.106;2022-11-20T04:46:35;9.55;;;6.15;;
4486;SDS011;2256;48.740;9.106;2022-11-20T04:49:03;7.97;;;5.03;;
4486;SDS011;2256;48.740;9.106;2022-11-20T04:51:31;8.55;;;5.38;;
4486;SDS011;2256;48.740;9.106;2022-11-20T04:53:58;13.02;;;6.93;;
4486;SDS011;2256;48.740;9.106;2022-11-20T04:56:25;9.60;;;4.85;;
4486;SDS011;2256;48.740;9.106;2022-11-20T04:58:54;7.10;;;4.88;;
4486;SDS011;2256;48.740;9.106;2022-11-20T05:01:21;6.28;;;4.50;;
4486;SDS011;2256;48.740;9.106;2022-11-20T05:03:49;9.45;;;5.15;;
4486;SDS011;2256;48.740;9.106;2022-11-20T05:06:17;12.02;;;5.20;;
4486;SDS011;2256;48.740;9.106;2022-11-20T05:08:46;6.05;;;4.18;;
4486;SDS011;2256;48.740;9.106;2022-11-20T05:11:14;6.35;;;4.68;;
4486;SDS011;2256;48.740;9.106;2022-11-20T05:13:42;11.40;;;4.82;;
4486;SDS011;2256;48.740;9.106;2022-11-20T05:16:10;8.40;;;4.50;;
4486;SDS011;2256;48.740;9.106;2022-11-20T05:18:38;13.55;;;5.28;;
4486;SDS011;2256;48.740;9.106;2022-11-20T05:21:06;7.90;;;4.60;;
4486;SDS011;2256;48.740;9.106;2022-11-20T05:23:33;7.65;;;4.45;;
4486;SDS011;2256;48.740;9.106;2022-11-20T05:26:01;5.65;;;3.78;;
4486;SDS011;2256;48.740;9.106;2022-11-20T05:28:28;7.93;;;4.65;;
4486;SDS011;2256;48.740;9.106;2022-11-20T05:31:03;6.53;;;4.53;;
4486;SDS011;2256;48.740;9.106;2022-11-20T05:33:32;10.13;;;5.20;;
4486;SDS011;2256;48.740;9.106;2022-11-20T05:35:59;5.35;;;3.83;;
4486;SDS011;2256;48.740;9.106;2022-11-20T05:38:26;7.38;;;4.15;;
4486;SDS011;2256;48.740;9.106;2022-11-20T05:40:52;6.60;;;4.43;;
4486;SDS011;2256;48.740;9.106;2022-11-20T05:43:19;6.25;;;4.30;;
4486;SDS011;2256;48.740;9.106;2022-11-20T05:45:51;7.00;;;4.32;;
4486;SDS011;2256;48.740;9.106;2022-11-20T05:48:18;7.05;;;3.90;;
4486;SDS011;2256;48.740;9.106;2022-11-20T05:50:47;10.00;;;4.50;;
4486;SDS011;2256;48.740;9.106;2022-11-20T05:53:13;6.82;;;3.55;;
4486;SDS011;2256;48.740;9.106;2022-11-20T05:55:40;7.25;;;4.15;;
4486;SDS011;2256;48.740;9.106;2022-11-20T05:58:07;5.82;;;3.80;;
4486;SDS011;2256;48.740;9.106;2022-11-20T06:00:34;6.00;;;4.00;;
4486;SDS011;2256;48.740;9.106;2022-11-20T06:03:01;7.63;;;4.07;;
4486;SDS011;2256;48.740;9.106;2022-11-20T06:05:28;6.28;;;4.07;;
4486;SDS011;2256;48.740;9.106;2022-11-20T06:07:56;5.03;;;3.70;;
4486;SDS011;2256;48.740;9.106;2022-11-20T06:10:22;17.05;;;4.18;;
4486;SDS011;2256;48.740;9.106;2022-11-20T06:12:49;5.18;;;3.65;;
4486;SDS011;2256;48.740;9.106;2022-11-20T06:15:16;9.68;;;3.88;;
4486;SDS011;2256;48.740;9.106;2022-11-20T06:17:43;5.22;;;4.18;;
4486;SDS011;2256;48.740;9.106;2022-11-20T06:20:09;5.03;;;3.50;;
4486;SDS011;2256;48.740;9.106;2022-11-20T06:22:37;4.32;;;3.42;;
4486;SDS011;2256;48.740;9.106;2022-11-20T06:25:05;5.28;;;3.90;;
4486;SDS011;2256;48.740;9.106;2022-11-20T06:27:32;8.23;;;4.00;;
4486;SDS011;2256;48.740;9.106;2022-11-20T06:29:59;12.38;;;3.40;;
4486;SDS011;2256;48.740;9.106;2022-11-20T06:32:25;4.53;;;3.30;;
4486;SDS011;2256;48.740;9.106;2022-11-20T06:34:52;7.43;;;4.00;;
4486;SDS011;2256;48.740;9.106;2022-11-20T06:37:19;4.20;;;3.00;;
4486;SDS011;2256;48.740;9.106;2022-11-20T06:39:45;6.07;;;3.70;;
4486;SDS011;2256;48.740;9.106;2022-11-20T06:42:14;6.20;;;3.45;;
4486;SDS011;2256;48.740;9.106;2022-11-20T06:44:40;5.53;;;3.72;;
4486;SDS011;2256;48.740;9.106;2022-11-20T06:47:07;3.90;;;3.50;;
4486;SDS011;2256;48.740;9.106;2022-11-20T06:49:34;5.70;;;3.85;;
4486;SDS011;2256;48.740;9.106;2022-11-20T06:52:02;6.38;;;4.00;;
4486;SDS011;2256;48.740;9.106;2022-11-20T06:54:29;4.38;;;3.50;;
4486;SDS011;2256;48.740;9.106;2022-11-20T06:56:55;12.93;;;4.00;;
4486;SDS011;2256;48.740;9.106;2022-11-20T06:59:23;6.05;;;3.60;;
4486;SDS011;2256;48.740;9.106;2022-11-20T07:01:50;4.15;;;3.75;;
4486;SDS011;2256;48.740;9.106;2022-11-20T07:04:17;7.43;;;3.92;;
4486;SDS011;2256;48.740;9.106;2022-11-20T07:06:43;9.05;;;3.63;;
4486;SDS011;2256;48.740;9.106;2022-11-20T07:09:10;4.28;;;3.70;;
4486;SDS011;2256;48.740;9.106;2022-11-20T07:11:37;4.78;;;3.58;;
4486;SDS011;2256;48.740;9.106;2022-11-20T07:14:04;4.13;;;3.17;;
4486;SDS011;2256;48.740;9.106;2022-11-20T07:16:32;5.63;;;3.67;;
4486;SDS011;2256;48.740;9.106;2022-11-20T07:18:59;10.73;;;4.25;;
4486;SDS011;2256;48.740;9.106;2022-11-20T07:21:27;8.82;;;3.67;;
4486;SDS011;2256;48.740;9.106;2022-11-20T07:23:54;6.50;;;3.90;;
4486;SDS011;2256;48.740;9.106;2022-11-20T07:26:21;3.30;;;2.92;;
4486;SDS011;2256;48.740;9.106;2022-11-20T07:28:47;7.13;;;3.80;;
4486;SDS011;2256;48.740;9.106;2022-11-20T07:31:14;5.95;;;4.22;;
4486;SDS011;2256;48.740;9.106;2022-11-20T07:33:42;4.60;;;3.10;;
4486;SDS011;2256;48.740;9.106;2022-11-20T07:36:09;9.07;;;3.63;;
4486;SDS011;2256;48.740;9.106;2022-11-20T07:38:36;4.40;;;3.20;;
4486;SDS011;2256;48.740;9.106;2022-11-20T07:41:03;4.43;;;3.00;;
4486;SDS011;2256;48.740;9.106;2022-11-20T07:43:30;4.15;;;3.03;;
4486;SDS011;2256;48.740;9.106;2022-11-20T07:45:58;3.65;;;3.00;;
4486;SDS011;2256;48.740;9.106;2022-11-20T07:48:25;4.07;;;2.90;;
4486;SDS011;2256;48.740;9.106;2022-11-20T07:50:54;3.22;;;2.90;;
4486;SDS011;2256;48.740;9.106;2022-11-20T07:53:21;7.88;;;3.08;;
4486;SDS011;2256;48.740;9.106;2022-11-20T07:55:48;4.72;;;2.90;;
4486;SDS011;2256;48.740;9.106;2022-11-20T07:58:17;3.30;;;2.72;;
4486;SDS011;2256;48.740;9.106;2022-11-20T08:00:44;6.90;;;3.30;;
4486;SDS011;2256;48.740;9.106;2022-11-20T08:03:10;5.78;;;3.55;;
4486;SDS011;2256;48.740;9.106;2022-11-20T08:05:37;4.35;;;2.75;;
4486;SDS011;2256;48.740;9.106;2022-11-20T08:08:05;3.03;;;2.72;;
4486;SDS011;2256;48.740;9.106;2022-11-20T08:10:33;4.32;;;2.72;;
4486;SDS011;2256;48.740;9.106;2022-11-20T08:12:59;11.43;;;3.88;;
4486;SDS011;2256;48.740;9.106;2022-11-20T08:15:47;3.85;;;2.72;;
4486;SDS011;2256;48.740;9.106;2022-11-20T08:18:16;5.03;;;3.03;;
4486;SDS011;2256;48.740;9.106;2022-11-20T08:20:43;2.75;;;2.50;;
4486;SDS011;2256;48.740;9.106;2022-11-20T08:23:12;3.08;;;2.65;;
4486;SDS011;2256;48.740;9.106;2022-11-20T08:25:39;4.78;;;2.90;;
4486;SDS011;2256;48.740;9.106;2022-11-20T08:28:06;2.85;;;2.22;;
4486;SDS011;2256;48.740;9.106;2022-11-20T08:30:34;3.10;;;2.50;;
4486;SDS011;2256;48.740;9.106;2022-11-20T08:33:06;3.08;;;1.83;;
4486;SDS011;2256;48.740;9.106;2022-11-20T08:35:35;3.65;;;2.95;;
4486;SDS011;2256;48.740;9.106;2022-11-20T08:38:03;2.22;;;2.13;;
4486;SDS011;2256;48.740;9.106;2022-11-20T08:40:32;3.55;;;2.55;;
4486;SDS011;2256;48.740;9.106;2022-11-20T08:42:59;4.38;;;2.40;;
4486;SDS011;2256;48.740;9.106;2022-11-20T08:45:26;2.25;;;2.10;;
4486;SDS011;2256;48.740;9.106;2022-11-20T08:47:52;2.50;;;2.17;;
4486;SDS011;2256;48.740;9.106;2022-11-20T08:50:19;4.05;;;2.50;;
4486;SDS011;2256;48.740;9.106;2022-11-20T08:52:46;2.45;;;2.13;;
4486;SDS011;2256;48.740;9.106;2022-11-20T08:55:13;10.13;;;2.27;;
4486;SDS011;2256;48.740;9.106;2022-11-20T08:57:41;3.97;;;1.90;;
4486;SDS011;2256;48.740;9.106;2022-11-20T09:00:09;2.57;;;2.03;;
4486;SDS011;2256;48.740;9.106;2022-11-20T09:02:37;2.10;;;1.90;;
4486;SDS011;2256;48.740;9.106;2022-11-20T09:05:04;3.57;;;2.30;;
4486;SDS011;2256;48.740;9.106;2022-11-20T09:07:31;2.50;;;1.90;;
4486;SDS011;2256;48.740;9.106;2022-11-20T09:09:58;2.10;;;1.90;;
4486;SDS011;2256;48.740;9.106;2022-11-20T09:12:25;2.70;;;2.00;;
4486;SDS011;2256;48.740;9.106;2022-11-20T09:14:53;2.80;;;2.20;;
4486;SDS011;2256;48.740;9.106;2022-11-20T09:17:19;1.70;;;1.60;;
4486;SDS011;2256;48.740;9.106;2022-11-20T09:19:46;3.05;;;1.77;;
4486;SDS011;2256;48.740;9.106;2022-11-20T09:22:13;1.70;;;1.60;;
4486;SDS011;2256;48.740;9.106;2022-11-20T09:24:40;1.70;;;1.60;;
4486;SDS011;2256;48.740;9.106;2022-11-20T09:27:07;2.20;;;1.77;;
4486;SDS011;2256;48.740;9.106;2022-11-20T09:29:34;2.60;;;1.53;;
4486;SDS011;2256;48.740;9.106;2022-11-20T09:32:02;1.70;;;1.45;;
4486;SDS011;2256;48.740;9.106;2022-11-20T09:34:29;1.30;;;1.20;;
4486;SDS011;2256;48.740;9.106;2022-11-20T09:36:56;1.30;;;1.20;;
4486;SDS011;2256;48.740;9.106;2022-11-20T09:39:23;2.20;;;1.48;;
4486;SDS011;2256;48.740;9.106;2022-11-20T09:41:55;1.15;;;1.05;;
4486;SDS011;2256;48.740;9.106;2022-11-20T09:44:38;1.10;;;1.00;;
4486;SDS011;2256;48.740;9.106;2022-11-20T09:47:19;1.13;;;1.03;;
4486;SDS011;2256;48.740;9.106;2022-11-20T09:49:57;4.10;;;1.13;;
4486;SDS011;2256;48.740;9.106;2022-11-20T09:52:32;1.40;;;1.30;;
4486;SDS011;2256;48.740;9.106;2022-11-20T09:55:08;1.42;;;1.15;;
4486;SDS011;2256;48.740;9.106;2022-11-20T09:57:38;2.47;;;1.30;;
4486;SDS011;2256;48.740;9.106;2022-11-20T10:00:09;1.30;;;1.20;;
4486;SDS011;2256;48.740;9.106;2022-11-20T10:02:41;1.20;;;1.05;;
4486;SDS011;2256;48.740;9.106;2022-11-20T10:05:10;2.03;;;1.10;;
4486;SDS011;2256;48.740;9.106;2022-11-20T10:07:43;1.25;;;1.15;;
4486;SDS011;2256;48.740;9.106;2022-11-20T10:10:15;1.17;;;1.08;;
4486;SDS011;2256;48.740;9.106;2022-11-20T10:12:49;1.77;;;1.30;;
4486;SDS011;2256;48.740;9.106;2022-11-20T10:15:27;1.50;;;1.20;;
4486;SDS011;2256;48.740;9.106;2022-11-20T10:18:08;4.70;;;1.50;;
4486;SDS011;2256;48.740;9.106;2022-11-20T10:20:44;1.67;;;1.52;;
4486;SDS011;2256;48.740;9.106;2022-11-20T10:23:19;6.30;;;1.50;;
4486;SDS011;2256;48.740;9.106;2022-11-20T10:25:56;1.65;;;1.15;;
4486;SDS011;2256;48.740;9.106;2022-11-20T10:28:30;1.40;;;1.30;;
4486;SDS011;2256;48.740;9.106;2022-11-20T10:31:11;2.38;;;1.23;;
4486;SDS011;2256;48.740;9.106;2022-11-20T10:33:51;1.40;;;1.30;;
4486;SDS011;2256;48.740;9.106;2022-11-20T10:36:21;1.47;;;1.37;;
4486;SDS011;2256;48.740;9.106;2022-11-20T10:38:53;1.50;;;1.40;;
4486;SDS011;2256;48.740;9.106;2022-11-20T10:41:24;2.78;;;1.10;;
4486;SDS011;2256;48.740;9.106;2022-11-20T10:43:58;3.30;;;1.60;;
4486;SDS011;2256;48.740;9.106;2022-11-20T10:46:37;1.92;;;1.48;;
4486;SDS011;2256;48.740;9.106;2022-11-20T10:49:12;3.58;;;1.40;;
4486;SDS011;2256;48.740;9.106;2022-11-20T10:51:43;3.00;;;1.50;;
4486;SDS011;2256;48.740;9.106;2022-11-20T10:54:27;1.83;;;1.70;;
4486;SDS011;2256;48.740;9.106;2022-11-20T10:57:03;3.38;;;1.40;;
4486;SDS011;2256;48.740;9.106;2022-11-20T10:59:46;7.18;;;2.00;;
4486;SDS011;2256;48.740;9.106;2022-11-20T11:02:32;3.67;;;1.98;;
4486;SDS011;2256;48.740;9.106;2022-11-20T11:05:04;2.00;;;1.70;;
4486;SDS011;2256;48.740;9.106;2022-11-20T11:07:48;1.65;;;1.55;;
4486;SDS011;2256;48.740;9.106;2022-11-20T11:10:18;2.03;;;1.80;;
4486;SDS011;2256;48.740;9.106;2022-11-20T11:12:48;1.40;;;1.30;;
4486;SDS011;2256;48.740;9.106;2022-11-20T11:15:24;3.30;;;1.60;;
4486;SDS011;2256;48.740;9.106;2022-11-20T11:17:52;1.60;;;1.50;;
4486;SDS011;2256;48.740;9.106;2022-11-20T11:20:21;4.57;;;2.20;;
4486;SDS011;2256;48.740;9.106;2022-11-20T11:22:50;2.67;;;2.10;;
4486;SDS011;2256;48.740;9.106;2022-11-20T11:25:23;6.57;;;1.97;;
4486;SDS011;2256;48.740;9.106;2022-11-20T11:27:53;2.60;;;1.60;;
4486;SDS011;2256;48.740;9.106;2022-11-20T11:30:22;2.87;;;1.87;;
4486;SDS011;2256;48.740;9.106;2022-11-20T11:32:50;1.70;;;1.60;;
4486;SDS011;2256;48.740;9.106;2022-11-20T11:35:25;11.80;;;1.83;;
4486;SDS011;2256;48.740;9.106;2022-11-20T11:37:54;3.30;;;1.80;;
4486;SDS011;2256;48.740;9.106;2022-11-20T11:40:31;2.13;;;1.50;;
4486;SDS011;2256;48.740;9.106;2022-11-20T11:42:59;2.97;;;2.30;;
4486;SDS011;2256;48.740;9.106;2022-11-20T11:45:28;2.63;;;2.00;;
4486;SDS011;2256;48.740;9.106;2022-11-20T11:47:55;2.30;;;1.90;;
4486;SDS011;2256;48.740;9.106;2022-11-20T11:50:25;1.80;;;1.70;;
4486;SDS011;2256;48.740;9.106;2022-11-20T11:52:56;4.37;;;2.43;;
4486;SDS011;2256;48.740;9.106;2022-11-20T11:55:31;4.87;;;2.17;;
4486;SDS011;2256;48.740;9.106;2022-11-20T11:58:07;6.53;;;1.70;;
4486;SDS011;2256;48.740;9.106;2022-11-20T12:00:41;1.57;;;1.47;;
4486;SDS011;2256;48.740;9.106;2022-11-20T12:03:16;4.57;;;1.73;;
4486;SDS011;2256;48.740;9.106;2022-11-20T12:05:50;4.67;;;1.60;;
4486;SDS011;2256;48.740;9.106;2022-11-20T12:08:23;2.90;;;1.30;;
4486;SDS011;2256;48.740;9.106;2022-11-20T12:10:54;4.90;;;1.60;;
4486;SDS011;2256;48.740;9.106;2022-11-20T12:13:32;1.63;;;1.50;;
4486;SDS011;2256;48.740;9.106;2022-11-20T12:16:07;3.87;;;1.30;;
4486;SDS011;2256;48.740;9.106;2022-11-20T12:18:37;5.63;;;1.50;;
4486;SDS011;2256;48.740;9.106;2022-11-20T12:21:10;2.37;;;1.40;;
4486;SDS011;2256;48.740;9.106;2022-11-20T12:23:51;4.37;;;1.33;;
4486;SDS011;2256;48.740;9.106;2022-11-20T12:26:42;7.70;;;1.50;;
4486;SDS011;2256;48.740;9.106;2022-11-20T12:29:18;4.10;;;1.70;;
4486;SDS011;2256;48.740;9.106;2022-11-20T12:32:01;3.07;;;1.53;;
4486;SDS011;2256;48.740;9.106;2022-11-20T12:34:44;1.53;;;1.30;;
4486;SDS011;2256;48.740;9.106;2022-11-20T12:37:23;3.13;;;1.40;;
4486;SDS011;2256;48.740;9.106;2022-11-20T12:40:01;7.53;;;1.40;;
4486;SDS011;2256;48.740;9.106;2022-11-20T12:42:41;9.70;;;1.30;;
4486;SDS011;2256;48.740;9.106;2022-11-20T12:48:36;1.30;;;1.20;;
4486;SDS011;2256;48.740;9.106;2022-11-20T12:51:13;2.30;;;1.40;;
4486;SDS011;2256;48.740;9.106;2022-11-20T12:54:30;4.97;;;1.47;;
4486;SDS011;2256;48.740;9.106;2022-11-20T12:57:21;2.40;;;1.10;;
4486;SDS011;2256;48.740;9.106;2022-11-20T13:00:07;3.83;;;1.17;;
4486;SDS011;2256;48.740;9.106;2022-11-20T13:02:41;1.37;;;1.17;;
4486;SDS011;2256;48.740;9.106;2022-11-20T13:05:24;1.75;;;1.30;;
4486;SDS011;2256;48.740;9.106;2022-11-20T13:07:58;2.93;;;1.00;;
4486;SDS011;2256;48.740;9.106;2022-11-20T13:10:31;2.17;;;1.02;;
4486;SDS011;2256;48.740;9.106;2022-11-20T13:13:03;2.17;;;1.20;;
4486;SDS011;2256;48.740;9.106;2022-11-20T13:15:40;6.53;;;1.17;;
4486;SDS011;2256;48.740;9.106;2022-11-20T13:18:15;1.40;;;1.23;;
4486;SDS011;2256;48.740;9.106;2022-11-20T13:20:43;2.30;;;1.20;;
4486;SDS011;2256;48.740;9.106;2022-11-20T13:23:10;1.57;;;1.00;;
4486;SDS011;2256;48.740;9.106;2022-11-20T13:25:39;2.08;;;1.10;;
4486;SDS011;2256;48.740;9.106;2022-11-20T13:30:53;1.35;;;1.25;;
4486;SDS011;2256;48.740;9.106;2022-11-20T13:33:22;3.25;;;1.45;;
4486;SDS011;2256;48.740;9.106;2022-11-20T13:35:55;1.70;;;1.30;;
4486;SDS011;2256;48.740;9.106;2022-11-20T13:38:23;7.57;;;1.65;;
4486;SDS011;2256;48.740;9.106;2022-11-20T13:40:52;3.13;;;1.40;;
4486;SDS011;2256;48.740;9.106;2022-11-20T13:43:28;12.20;;;1.77;;
4486;SDS011;2256;48.740;9.106;2022-11-20T13:46:01;10.23;;;1.90;;
4486;SDS011;2256;48.740;9.106;2022-11-20T13:48:30;8.17;;;1.93;;
4486;SDS011;2256;48.740;9.106;2022-11-20T13:51:12;7.67;;;1.90;;
4486;SDS011;2256;48.740;9.106;2022-11-20T13:53:56;1.42;;;1.20;;
4486;SDS011;2256;48.740;9.106;2022-11-20T13:56:46;3.92;;;1.40;;
4486;SDS011;2256;48.740;9.106;2022-11-20T13:59:24;2.23;;;1.40;;
4486;SDS011;2256;48.740;9.106;2022-11-20T14:01:59;1.45;;;1.20;;
4486;SDS011;2256;48.740;9.106;2022-11-20T14:04:28;5.80;;;1.50;;
4486;SDS011;2256;48.740;9.106;2022-11-20T14:06:58;3.70;;;1.43;;
4486;SDS011;2256;48.740;9.106;2022-11-20T14:09:26;6.90;;;1.70;;
4486;SDS011;2256;48.740;9.106;2022-11-20T14:11:55;2.92;;;1.58;;
4486;SDS011;2256;48.740;9.106;2022-11-20T14:14:23;5.60;;;1.90;;
4486;SDS011;2256;48.740;9.106;2022-11-20T14:16:51;3.55;;;1.38;;
4486;SDS011;2256;48.740;9.106;2022-11-20T14:19:25;5.07;;;1.75;;
4486;SDS011;2256;48.740;9.106;2022-11-20T14:22:06;1.75;;;1.40;;
4486;SDS011;2256;48.740;9.106;2022-11-20T14:24:35;2.80;;;1.52;;
4486;SDS011;2256;48.740;9.106;2022-11-20T14:27:03;2.85;;;1.50;;
4486;SDS011;2256;48.740;9.106;2022-11-20T14:29:33;7.68;;;2.15;;
4486;SDS011;2256;48.740;9.106;2022-11-20T14:32:01;1.92;;;1.20;;
4486;SDS011;2256;48.740;9.106;2022-11-20T14:34:30;3.28;;;1.40;;
4486;SDS011;2256;48.740;9.106;2022-11-20T14:37:00;4.93;;;1.50;;
4486;SDS011;2256;48.740;9.106;2022-11-20T14:39:30;7.10;;;1.67;;
4486;SDS011;2256;48.740;9.106;2022-11-20T14:41:59;3.93;;;1.97;;
4486;SDS011;2256;48.740;9.106;2022-11-20T14:44:27;1.60;;;1.25;;
4486;SDS011;2256;48.740;9.106;2022-11-20T14:46:57;1.60;;;1.50;;
4486;SDS011;2256;48.740;9.106;2022-11-20T14:49:25;2.05;;;1.55;;
4486;SDS011;2256;48.740;9.106;2022-11-20T14:52:01;1.85;;;1.67;;
4486;SDS011;2256;48.740;9.106;2022-11-20T14:54:29;2.80;;;1.58;;
4486;SDS011;2256;48.740;9.106;2022-11-20T14:56:56;2.17;;;1.75;;
4486;SDS011;2256;48.740;9.106;2022-11-20T14:59:25;7.20;;;1.77;;
4486;SDS011;2256;48.740;9.106;2022-11-20T15:01:55;3.40;;;1.50;;
4486;SDS011;2256;48.740;9.106;2022-11-20T15:04:23;6.45;;;1.85;;
4486;SDS011;2256;48.740;9.106;2022-11-20T15:06:50;4.70;;;1.67;;
4486;SDS011;2256;48.740;9.106;2022-11-20T15:09:19;3.22;;;1.80;;
4486;SDS011;2256;48.740;9.106;2022-11-20T15:11:52;2.65;;;1.40;;
4486;SDS011;2256;48.740;9.106;2022-11-20T15:14:21;3.00;;;1.63;;
4486;SDS011;2256;48.740;9.106;2022-11-20T15:16:51;2.63;;;1.70;;
4486;SDS011;2256;48.740;9.106;2022-11-20T15:19:19;7.78;;;2.60;;
4486;SDS011;2256;48.740;9.106;2022-11-20T15:21:47;3.53;;;2.15;;
4486;SDS011;2256;48.740;9.106;2022-11-20T15:24:15;5.18;;;1.75;;
4486;SDS011;2256;48.740;9.106;2022-11-20T15:26:42;2.70;;;1.65;;
4486;SDS011;2256;48.740;9.106;2022-11-20T15:29:09;2.00;;;1.85;;
4486;SDS011;2256;48.740;9.106;2022-11-20T15:31:38;4.50;;;1.65;;
4486;SDS011;2256;48.740;9.106;2022-11-20T15:34:08;2.45;;;1.70;;
4486;SDS011;2256;48.740;9.106;2022-11-20T15:36:37;3.28;;;1.80;;